sensor_id;sensor_type;location;lat;lon;timestamp;P1;durP1;ratioP1;P2;durP2;ratioP2
17228;SDS011;8731;50.364;8.958;2023-04-25T00:00:33;8.10;;;7.07;;
17228;SDS011;8731;50.364;8.958;2023-04-25T00:04:56;8.93;;;8.00;;
17228;SDS011;8731;50.364;8.958;2023-04-25T00:09:19;9.77;;;8.07;;
17228;SDS011;8731;50.364;8.958;2023-04-25T00:13:41;9.40;;;8.27;;
17228;SDS011;8731;50.364;8.958;2023-04-25T00:18:05;12.47;;;9.17;;
17228;SDS011;8731;50.364;8.958;2023-04-25T00:22:27;9.77;;;8.53;;
17228;SDS011;8731;50.364;8.958;2023-04-25T00:26:49;10.67;;;7.90;;
17228;SDS011;8731;50.364;8.958;2023-04-25T00:31:12;10.70;;;8.83;;
17228;SDS011;8731;50.364;8.958;2023-04-25T00:35:36;10.37;;;9.27;;
17228;SDS011;8731;50.364;8.958;2023-04-25T00:39:59;9.90;;;8.60;;
17228;SDS011;8731;50.364;8.958;2023-04-25T00:44:21;11.53;;;9.40;;
17228;SDS011;8731;50.364;8.958;2023-04-25T00:48:46;12.43;;;9.10;;
17228;SDS011;8731;50.364;8.958;2023-04-25T00:53:10;10.60;;;9.20;;
17228;SDS011;8731;50.364;8.958;2023-04-25T00:57:32;10.93;;;9.10;;
17228;SDS011;8731;50.364;8.958;2023-04-25T01:01:56;9.97;;;8.90;;
17228;SDS011;8731;50.364;8.958;2023-04-25T01:06:19;11.80;;;10.03;;
17228;SDS011;8731;50.364;8.958;2023-04-25T01:10:43;10.73;;;9.20;;
17228;SDS011;8731;50.364;8.958;2023-04-25T01:15:06;11.33;;;9.47;;
17228;SDS011;8731;50.364;8.958;2023-04-25T01:19:29;10.77;;;9.67;;
17228;SDS011;8731;50.364;8.958;2023-04-25T01:23:54;11.13;;;9.33;;
17228;SDS011;8731;50.364;8.958;2023-04-25T01:28:16;11.33;;;9.70;;
17228;SDS011;8731;50.364;8.958;2023-04-25T01:32:39;10.93;;;9.73;;
17228;SDS011;8731;50.364;8.958;2023-04-25T01:37:03;11.50;;;10.30;;
17228;SDS011;8731;50.364;8.958;2023-04-25T01:41:27;10.77;;;9.67;;
17228;SDS011;8731;50.364;8.958;2023-04-25T01:45:50;12.40;;;10.17;;
17228;SDS011;8731;50.364;8.958;2023-04-25T01:50:13;11.47;;;10.23;;
17228;SDS011;8731;50.364;8.958;2023-04-25T01:54:36;14.27;;;9.90;;
17228;SDS011;8731;50.364;8.958;2023-04-25T01:59:00;10.20;;;9.03;;
17228;SDS011;8731;50.364;8.958;2023-04-25T02:03:41;11.97;;;9.30;;
17228;SDS011;8731;50.364;8.958;2023-04-25T02:08:13;11.33;;;9.27;;
17228;SDS011;8731;50.364;8.958;2023-04-25T02:12:37;13.03;;;10.00;;
17228;SDS011;8731;50.364;8.958;2023-04-25T02:17:15;12.47;;;10.10;;
17228;SDS011;8731;50.364;8.958;2023-04-25T02:21:39;13.63;;;10.50;;
17228;SDS011;8731;50.364;8.958;2023-04-25T02:26:01;11.73;;;10.33;;
17228;SDS011;8731;50.364;8.958;2023-04-25T02:30:24;11.30;;;10.20;;
17228;SDS011;8731;50.364;8.958;2023-04-25T02:34:47;13.00;;;10.90;;
17228;SDS011;8731;50.364;8.958;2023-04-25T02:39:10;10.90;;;9.67;;
17228;SDS011;8731;50.364;8.958;2023-04-25T02:43:32;12.90;;;10.87;;
17228;SDS011;8731;50.364;8.958;2023-04-25T02:47:55;13.17;;;10.73;;
17228;SDS011;8731;50.364;8.958;2023-04-25T02:52:18;14.83;;;10.60;;
17228;SDS011;8731;50.364;8.958;2023-04-25T02:56:48;10.97;;;9.47;;
17228;SDS011;8731;50.364;8.958;2023-04-25T03:01:17;14.53;;;9.57;;
17228;SDS011;8731;50.364;8.958;2023-04-25T03:05:40;12.43;;;9.10;;
17228;SDS011;8731;50.364;8.958;2023-04-25T03:10:04;15.97;;;9.37;;
17228;SDS011;8731;50.364;8.958;2023-04-25T03:14:29;10.97;;;8.73;;
17228;SDS011;8731;50.364;8.958;2023-04-25T03:18:52;10.40;;;8.27;;
17228;SDS011;8731;50.364;8.958;2023-04-25T03:23:14;11.40;;;7.80;;
17228;SDS011;8731;50.364;8.958;2023-04-25T03:27:38;11.33;;;7.33;;
17228;SDS011;8731;50.364;8.958;2023-04-25T03:32:01;10.63;;;6.77;;
17228;SDS011;8731;50.364;8.958;2023-04-25T03:36:23;8.83;;;6.17;;
17228;SDS011;8731;50.364;8.958;2023-04-25T03:40:46;11.43;;;5.80;;
17228;SDS011;8731;50.364;8.958;2023-04-25T03:45:17;10.83;;;5.47;;
17228;SDS011;8731;50.364;8.958;2023-04-25T03:49:41;8.50;;;4.90;;
17228;SDS011;8731;50.364;8.958;2023-04-25T03:54:05;8.23;;;4.90;;
17228;SDS011;8731;50.364;8.958;2023-04-25T03:58:33;10.50;;;5.10;;
17228;SDS011;8731;50.364;8.958;2023-04-25T04:02:57;14.37;;;5.77;;
17228;SDS011;8731;50.364;8.958;2023-04-25T04:07:19;11.47;;;5.60;;
17228;SDS011;8731;50.364;8.958;2023-04-25T04:11:46;9.77;;;5.27;;
17228;SDS011;8731;50.364;8.958;2023-04-25T04:16:08;10.77;;;6.13;;
17228;SDS011;8731;50.364;8.958;2023-04-25T04:20:34;12.47;;;6.43;;
17228;SDS011;8731;50.364;8.958;2023-04-25T04:24:57;12.83;;;5.60;;
17228;SDS011;8731;50.364;8.958;2023-04-25T04:29:45;13.83;;;6.83;;
17228;SDS011;8731;50.364;8.958;2023-04-25T04:34:14;13.03;;;5.57;;
17228;SDS011;8731;50.364;8.958;2023-04-25T04:38:40;9.60;;;4.97;;
17228;SDS011;8731;50.364;8.958;2023-04-25T04:43:12;9.00;;;5.13;;
17228;SDS011;8731;50.364;8.958;2023-04-25T04:47:49;13.70;;;6.27;;
17228;SDS011;8731;50.364;8.958;2023-04-25T04:52:38;9.60;;;5.57;;
17228;SDS011;8731;50.364;8.958;2023-04-25T04:57:32;14.10;;;6.37;;
17228;SDS011;8731;50.364;8.958;2023-04-25T05:02:10;16.77;;;6.33;;
17228;SDS011;8731;50.364;8.958;2023-04-25T05:06:43;13.97;;;6.27;;
17228;SDS011;8731;50.364;8.958;2023-04-25T05:11:17;16.93;;;5.93;;
17228;SDS011;8731;50.364;8.958;2023-04-25T05:16:00;13.50;;;5.67;;
17228;SDS011;8731;50.364;8.958;2023-04-25T05:20:42;11.87;;;5.60;;
17228;SDS011;8731;50.364;8.958;2023-04-25T05:25:15;9.07;;;4.87;;
17228;SDS011;8731;50.364;8.958;2023-04-25T05:29:50;11.23;;;4.97;;
17228;SDS011;8731;50.364;8.958;2023-04-25T05:34:25;14.23;;;4.83;;
17228;SDS011;8731;50.364;8.958;2023-04-25T05:38:50;13.20;;;5.10;;
17228;SDS011;8731;50.364;8.958;2023-04-25T05:43:13;14.20;;;5.23;;
17228;SDS011;8731;50.364;8.958;2023-04-25T05:47:41;13.73;;;5.40;;
17228;SDS011;8731;50.364;8.958;2023-04-25T05:52:12;9.10;;;4.67;;
17228;SDS011;8731;50.364;8.958;2023-04-25T05:56:44;8.67;;;4.60;;
17228;SDS011;8731;50.364;8.958;2023-04-25T06:01:07;6.27;;;4.53;;
17228;SDS011;8731;50.364;8.958;2023-04-25T06:05:30;11.97;;;4.33;;
17228;SDS011;8731;50.364;8.958;2023-04-25T06:09:54;11.20;;;4.10;;
17228;SDS011;8731;50.364;8.958;2023-04-25T06:14:17;8.77;;;3.90;;
17228;SDS011;8731;50.364;8.958;2023-04-25T06:18:43;11.33;;;4.13;;
17228;SDS011;8731;50.364;8.958;2023-04-25T06:23:05;8.20;;;3.50;;
17228;SDS011;8731;50.364;8.958;2023-04-25T06:27:48;9.03;;;4.00;;
17228;SDS011;8731;50.364;8.958;2023-04-25T06:32:11;5.97;;;3.37;;
17228;SDS011;8731;50.364;8.958;2023-04-25T06:36:34;7.13;;;3.23;;
17228;SDS011;8731;50.364;8.958;2023-04-25T06:41:01;6.27;;;3.17;;
17228;SDS011;8731;50.364;8.958;2023-04-25T06:45:29;7.33;;;3.17;;
17228;SDS011;8731;50.364;8.958;2023-04-25T06:49:52;7.80;;;4.50;;
17228;SDS011;8731;50.364;8.958;2023-04-25T06:54:15;7.37;;;3.60;;
17228;SDS011;8731;50.364;8.958;2023-04-25T06:58:48;6.30;;;3.57;;
17228;SDS011;8731;50.364;8.958;2023-04-25T07:03:30;7.50;;;3.10;;
17228;SDS011;8731;50.364;8.958;2023-04-25T07:07:57;6.77;;;3.73;;
17228;SDS011;8731;50.364;8.958;2023-04-25T07:12:21;5.27;;;3.40;;
17228;SDS011;8731;50.364;8.958;2023-04-25T07:16:44;5.53;;;3.07;;
17228;SDS011;8731;50.364;8.958;2023-04-25T07:21:08;6.37;;;3.80;;
17228;SDS011;8731;50.364;8.958;2023-04-25T07:25:31;5.63;;;3.33;;
17228;SDS011;8731;50.364;8.958;2023-04-25T07:29:57;5.93;;;3.60;;
17228;SDS011;8731;50.364;8.958;2023-04-25T07:34:19;7.67;;;3.80;;
17228;SDS011;8731;50.364;8.958;2023-04-25T07:38:44;7.50;;;3.90;;
17228;SDS011;8731;50.364;8.958;2023-04-25T07:43:06;8.10;;;3.63;;
17228;SDS011;8731;50.364;8.958;2023-04-25T07:47:39;6.73;;;3.70;;
17228;SDS011;8731;50.364;8.958;2023-04-25T07:52:03;5.23;;;3.90;;
17228;SDS011;8731;50.364;8.958;2023-04-25T07:56:31;5.87;;;3.87;;
17228;SDS011;8731;50.364;8.958;2023-04-25T08:00:54;6.67;;;4.27;;
17228;SDS011;8731;50.364;8.958;2023-04-25T08:05:28;7.83;;;4.27;;
17228;SDS011;8731;50.364;8.958;2023-04-25T08:09:56;6.63;;;4.17;;
17228;SDS011;8731;50.364;8.958;2023-04-25T08:14:26;5.57;;;4.10;;
17228;SDS011;8731;50.364;8.958;2023-04-25T08:18:51;7.03;;;5.23;;
17228;SDS011;8731;50.364;8.958;2023-04-25T08:23:14;9.30;;;6.07;;
17228;SDS011;8731;50.364;8.958;2023-04-25T08:27:48;8.67;;;5.30;;
17228;SDS011;8731;50.364;8.958;2023-04-25T08:32:14;8.33;;;7.03;;
17228;SDS011;8731;50.364;8.958;2023-04-25T08:36:51;9.23;;;5.90;;
17228;SDS011;8731;50.364;8.958;2023-04-25T08:41:36;6.27;;;4.40;;
17228;SDS011;8731;50.364;8.958;2023-04-25T08:46:01;6.33;;;4.10;;
17228;SDS011;8731;50.364;8.958;2023-04-25T08:50:33;6.07;;;4.00;;
17228;SDS011;8731;50.364;8.958;2023-04-25T08:54:57;5.87;;;3.10;;
17228;SDS011;8731;50.364;8.958;2023-04-25T08:59:23;4.70;;;3.40;;
17228;SDS011;8731;50.364;8.958;2023-04-25T09:03:47;5.40;;;3.23;;
17228;SDS011;8731;50.364;8.958;2023-04-25T09:08:13;5.57;;;3.43;;
17228;SDS011;8731;50.364;8.958;2023-04-25T09:12:36;6.37;;;2.90;;
17228;SDS011;8731;50.364;8.958;2023-04-25T09:17:02;6.63;;;3.77;;
17228;SDS011;8731;50.364;8.958;2023-04-25T09:21:36;5.47;;;3.10;;
17228;SDS011;8731;50.364;8.958;2023-04-25T09:26:00;6.07;;;3.07;;
17228;SDS011;8731;50.364;8.958;2023-04-25T09:30:28;4.50;;;2.70;;
17228;SDS011;8731;50.364;8.958;2023-04-25T09:34:59;4.03;;;2.93;;
17228;SDS011;8731;50.364;8.958;2023-04-25T09:39:32;5.57;;;2.80;;
17228;SDS011;8731;50.364;8.958;2023-04-25T09:44:05;5.80;;;2.77;;
17228;SDS011;8731;50.364;8.958;2023-04-25T09:48:31;7.33;;;4.40;;
17228;SDS011;8731;50.364;8.958;2023-04-25T09:53:03;7.10;;;3.70;;
17228;SDS011;8731;50.364;8.958;2023-04-25T09:57:47;4.40;;;2.60;;
17228;SDS011;8731;50.364;8.958;2023-04-25T10:02:19;5.07;;;2.97;;
17228;SDS011;8731;50.364;8.958;2023-04-25T10:06:48;4.67;;;1.97;;
17228;SDS011;8731;50.364;8.958;2023-04-25T10:11:13;4.20;;;1.60;;
17228;SDS011;8731;50.364;8.958;2023-04-25T10:15:36;6.53;;;3.00;;
17228;SDS011;8731;50.364;8.958;2023-04-25T10:20:02;6.10;;;3.33;;
17228;SDS011;8731;50.364;8.958;2023-04-25T10:24:27;3.67;;;1.80;;
17228;SDS011;8731;50.364;8.958;2023-04-25T10:28:57;5.07;;;2.40;;
17228;SDS011;8731;50.364;8.958;2023-04-25T10:33:21;6.13;;;2.30;;
17228;SDS011;8731;50.364;8.958;2023-04-25T10:37:59;4.30;;;2.33;;
17228;SDS011;8731;50.364;8.958;2023-04-25T10:42:24;3.47;;;2.00;;
17228;SDS011;8731;50.364;8.958;2023-04-25T10:46:47;11.07;;;3.20;;
17228;SDS011;8731;50.364;8.958;2023-04-25T10:51:10;5.60;;;2.00;;
17228;SDS011;8731;50.364;8.958;2023-04-25T10:55:50;5.53;;;2.20;;
17228;SDS011;8731;50.364;8.958;2023-04-25T11:00:13;6.37;;;2.83;;
17228;SDS011;8731;50.364;8.958;2023-04-25T11:04:40;6.20;;;3.83;;
17228;SDS011;8731;50.364;8.958;2023-04-25T11:09:08;8.83;;;4.27;;
17228;SDS011;8731;50.364;8.958;2023-04-25T11:13:35;12.50;;;8.67;;
17228;SDS011;8731;50.364;8.958;2023-04-25T11:17:58;5.27;;;2.57;;
17228;SDS011;8731;50.364;8.958;2023-04-25T11:22:21;4.40;;;3.13;;
17228;SDS011;8731;50.364;8.958;2023-04-25T11:26:46;10.50;;;8.13;;
17228;SDS011;8731;50.364;8.958;2023-04-25T11:31:10;8.37;;;3.40;;
17228;SDS011;8731;50.364;8.958;2023-04-25T11:35:33;9.03;;;3.27;;
17228;SDS011;8731;50.364;8.958;2023-04-25T11:39:55;4.73;;;2.37;;
17228;SDS011;8731;50.364;8.958;2023-04-25T11:44:18;7.37;;;2.70;;
17228;SDS011;8731;50.364;8.958;2023-04-25T11:48:43;3.70;;;1.70;;
17228;SDS011;8731;50.364;8.958;2023-04-25T11:53:05;4.37;;;2.60;;
17228;SDS011;8731;50.364;8.958;2023-04-25T11:57:30;3.93;;;1.80;;
17228;SDS011;8731;50.364;8.958;2023-04-25T12:01:53;7.63;;;2.20;;
17228;SDS011;8731;50.364;8.958;2023-04-25T12:06:17;5.47;;;2.00;;
17228;SDS011;8731;50.364;8.958;2023-04-25T12:10:39;5.80;;;2.73;;
17228;SDS011;8731;50.364;8.958;2023-04-25T12:15:10;8.33;;;3.70;;
17228;SDS011;8731;50.364;8.958;2023-04-25T12:19:36;4.73;;;2.00;;
17228;SDS011;8731;50.364;8.958;2023-04-25T12:28:46;7.63;;;2.37;;
17228;SDS011;8731;50.364;8.958;2023-04-25T12:33:08;5.20;;;2.30;;
17228;SDS011;8731;50.364;8.958;2023-04-25T12:37:30;5.23;;;2.47;;
17228;SDS011;8731;50.364;8.958;2023-04-25T12:41:54;9.83;;;5.00;;
17228;SDS011;8731;50.364;8.958;2023-04-25T12:46:16;7.07;;;3.17;;
17228;SDS011;8731;50.364;8.958;2023-04-25T12:50:38;5.67;;;2.43;;
17228;SDS011;8731;50.364;8.958;2023-04-25T12:55:01;5.23;;;2.40;;
17228;SDS011;8731;50.364;8.958;2023-04-25T12:59:25;8.77;;;2.80;;
17228;SDS011;8731;50.364;8.958;2023-04-25T13:03:48;5.33;;;3.20;;
17228;SDS011;8731;50.364;8.958;2023-04-25T13:08:10;6.00;;;3.00;;
17228;SDS011;8731;50.364;8.958;2023-04-25T13:12:33;6.63;;;3.70;;
17228;SDS011;8731;50.364;8.958;2023-04-25T13:16:56;7.73;;;3.10;;
17228;SDS011;8731;50.364;8.958;2023-04-25T13:21:19;14.00;;;9.00;;
17228;SDS011;8731;50.364;8.958;2023-04-25T13:25:41;5.23;;;3.00;;
17228;SDS011;8731;50.364;8.958;2023-04-25T13:30:03;11.93;;;6.20;;
17228;SDS011;8731;50.364;8.958;2023-04-25T13:34:29;10.90;;;5.53;;
17228;SDS011;8731;50.364;8.958;2023-04-25T13:38:51;6.07;;;2.70;;
17228;SDS011;8731;50.364;8.958;2023-04-25T13:43:14;6.37;;;2.80;;
17228;SDS011;8731;50.364;8.958;2023-04-25T13:47:36;6.80;;;2.63;;
17228;SDS011;8731;50.364;8.958;2023-04-25T13:52:00;4.50;;;2.27;;
17228;SDS011;8731;50.364;8.958;2023-04-25T13:56:22;5.40;;;2.70;;
17228;SDS011;8731;50.364;8.958;2023-04-25T14:00:45;5.50;;;2.30;;
17228;SDS011;8731;50.364;8.958;2023-04-25T14:05:07;4.70;;;2.10;;
17228;SDS011;8731;50.364;8.958;2023-04-25T14:09:31;5.23;;;2.53;;
17228;SDS011;8731;50.364;8.958;2023-04-25T14:13:54;5.27;;;1.90;;
17228;SDS011;8731;50.364;8.958;2023-04-25T14:18:16;5.57;;;2.20;;
17228;SDS011;8731;50.364;8.958;2023-04-25T14:22:39;4.43;;;2.00;;
17228;SDS011;8731;50.364;8.958;2023-04-25T14:27:05;5.27;;;1.97;;
17228;SDS011;8731;50.364;8.958;2023-04-25T14:31:27;5.43;;;2.13;;
17228;SDS011;8731;50.364;8.958;2023-04-25T14:35:49;4.47;;;1.77;;
17228;SDS011;8731;50.364;8.958;2023-04-25T14:40:12;12.63;;;2.50;;
17228;SDS011;8731;50.364;8.958;2023-04-25T14:44:37;6.90;;;2.33;;
17228;SDS011;8731;50.364;8.958;2023-04-25T14:49:00;7.90;;;2.10;;
17228;SDS011;8731;50.364;8.958;2023-04-25T14:53:23;5.07;;;2.00;;
17228;SDS011;8731;50.364;8.958;2023-04-25T14:57:45;5.57;;;1.83;;
17228;SDS011;8731;50.364;8.958;2023-04-25T15:02:09;3.67;;;1.70;;
17228;SDS011;8731;50.364;8.958;2023-04-25T15:06:32;4.60;;;1.60;;
17228;SDS011;8731;50.364;8.958;2023-04-25T15:10:55;5.73;;;1.90;;
17228;SDS011;8731;50.364;8.958;2023-04-25T15:15:17;4.47;;;1.63;;
17228;SDS011;8731;50.364;8.958;2023-04-25T15:19:41;7.30;;;2.03;;
17228;SDS011;8731;50.364;8.958;2023-04-25T15:24:04;7.67;;;2.23;;
17228;SDS011;8731;50.364;8.958;2023-04-25T15:28:26;6.50;;;2.23;;
17228;SDS011;8731;50.364;8.958;2023-04-25T15:32:49;7.23;;;2.80;;
17228;SDS011;8731;50.364;8.958;2023-04-25T15:37:12;11.17;;;2.80;;
17228;SDS011;8731;50.364;8.958;2023-04-25T15:41:35;4.83;;;2.23;;
17228;SDS011;8731;50.364;8.958;2023-04-25T15:45:58;6.43;;;3.10;;
17228;SDS011;8731;50.364;8.958;2023-04-25T15:50:20;10.00;;;3.63;;
17228;SDS011;8731;50.364;8.958;2023-04-25T15:54:45;9.43;;;4.30;;
17228;SDS011;8731;50.364;8.958;2023-04-25T15:59:07;7.03;;;3.27;;
17228;SDS011;8731;50.364;8.958;2023-04-25T16:03:29;6.23;;;2.30;;
17228;SDS011;8731;50.364;8.958;2023-04-25T16:07:52;6.70;;;2.30;;
17228;SDS011;8731;50.364;8.958;2023-04-25T16:12:16;7.10;;;2.00;;
17228;SDS011;8731;50.364;8.958;2023-04-25T16:16:39;7.40;;;2.70;;
17228;SDS011;8731;50.364;8.958;2023-04-25T16:21:03;5.47;;;2.20;;
17228;SDS011;8731;50.364;8.958;2023-04-25T16:25:26;4.33;;;1.60;;
17228;SDS011;8731;50.364;8.958;2023-04-25T16:29:49;5.30;;;1.57;;
17228;SDS011;8731;50.364;8.958;2023-04-25T16:34:12;4.80;;;1.70;;
17228;SDS011;8731;50.364;8.958;2023-04-25T16:38:35;3.30;;;1.70;;
17228;SDS011;8731;50.364;8.958;2023-04-25T16:42:58;6.40;;;1.60;;
17228;SDS011;8731;50.364;8.958;2023-04-25T16:47:22;5.50;;;2.20;;
17228;SDS011;8731;50.364;8.958;2023-04-25T16:51:45;6.40;;;1.43;;
17228;SDS011;8731;50.364;8.958;2023-04-25T16:56:07;8.03;;;1.80;;
17228;SDS011;8731;50.364;8.958;2023-04-25T17:00:29;5.03;;;2.20;;
17228;SDS011;8731;50.364;8.958;2023-04-25T17:04:53;4.63;;;1.93;;
17228;SDS011;8731;50.364;8.958;2023-04-25T17:09:16;4.87;;;2.50;;
17228;SDS011;8731;50.364;8.958;2023-04-25T17:13:38;4.57;;;1.70;;
17228;SDS011;8731;50.364;8.958;2023-04-25T17:18:02;4.67;;;1.90;;
17228;SDS011;8731;50.364;8.958;2023-04-25T17:22:26;7.27;;;3.37;;
17228;SDS011;8731;50.364;8.958;2023-04-25T17:26:48;12.33;;;7.80;;
17228;SDS011;8731;50.364;8.958;2023-04-25T17:31:11;5.63;;;3.10;;
17228;SDS011;8731;50.364;8.958;2023-04-25T17:35:33;4.07;;;2.10;;
17228;SDS011;8731;50.364;8.958;2023-04-25T17:39:57;5.97;;;1.77;;
17228;SDS011;8731;50.364;8.958;2023-04-25T17:44:19;8.27;;;6.33;;
17228;SDS011;8731;50.364;8.958;2023-04-25T17:48:41;7.97;;;3.43;;
17228;SDS011;8731;50.364;8.958;2023-04-25T17:53:04;7.40;;;4.70;;
17228;SDS011;8731;50.364;8.958;2023-04-25T17:57:27;4.87;;;2.33;;
17228;SDS011;8731;50.364;8.958;2023-04-25T18:01:50;4.50;;;1.77;;
17228;SDS011;8731;50.364;8.958;2023-04-25T18:06:12;3.30;;;1.20;;
17228;SDS011;8731;50.364;8.958;2023-04-25T18:10:35;3.10;;;1.60;;
17228;SDS011;8731;50.364;8.958;2023-04-25T18:14:59;6.00;;;2.00;;
17228;SDS011;8731;50.364;8.958;2023-04-25T18:19:24;2.97;;;1.10;;
17228;SDS011;8731;50.364;8.958;2023-04-25T18:23:47;4.03;;;1.33;;
17228;SDS011;8731;50.364;8.958;2023-04-25T18:28:09;4.77;;;2.00;;
17228;SDS011;8731;50.364;8.958;2023-04-25T18:32:33;5.97;;;1.20;;
17228;SDS011;8731;50.364;8.958;2023-04-25T18:36:55;8.10;;;2.03;;
17228;SDS011;8731;50.364;8.958;2023-04-25T18:41:17;3.73;;;1.57;;
17228;SDS011;8731;50.364;8.958;2023-04-25T18:45:40;3.43;;;1.30;;
17228;SDS011;8731;50.364;8.958;2023-04-25T18:50:05;3.80;;;1.30;;
17228;SDS011;8731;50.364;8.958;2023-04-25T18:54:28;4.27;;;2.50;;
17228;SDS011;8731;50.364;8.958;2023-04-25T18:58:51;7.30;;;3.47;;
17228;SDS011;8731;50.364;8.958;2023-04-25T19:03:14;8.73;;;4.20;;
17228;SDS011;8731;50.364;8.958;2023-04-25T19:07:38;7.23;;;3.53;;
17228;SDS011;8731;50.364;8.958;2023-04-25T19:12:00;6.63;;;3.60;;
17228;SDS011;8731;50.364;8.958;2023-04-25T19:16:23;5.17;;;2.60;;
17228;SDS011;8731;50.364;8.958;2023-04-25T19:20:46;5.07;;;1.90;;
17228;SDS011;8731;50.364;8.958;2023-04-25T19:25:10;8.43;;;3.90;;
17228;SDS011;8731;50.364;8.958;2023-04-25T19:29:32;12.67;;;6.53;;
17228;SDS011;8731;50.364;8.958;2023-04-25T19:33:55;8.00;;;4.10;;
17228;SDS011;8731;50.364;8.958;2023-04-25T19:38:18;4.53;;;2.07;;
17228;SDS011;8731;50.364;8.958;2023-04-25T19:42:42;3.40;;;1.40;;
17228;SDS011;8731;50.364;8.958;2023-04-25T19:47:05;5.47;;;2.50;;
17228;SDS011;8731;50.364;8.958;2023-04-25T19:51:27;5.17;;;1.87;;
17228;SDS011;8731;50.364;8.958;2023-04-25T19:55:50;3.37;;;1.40;;
17228;SDS011;8731;50.364;8.958;2023-04-25T20:00:15;4.90;;;1.23;;
17228;SDS011;8731;50.364;8.958;2023-04-25T20:04:39;4.10;;;2.20;;
17228;SDS011;8731;50.364;8.958;2023-04-25T20:09:01;5.37;;;1.90;;
17228;SDS011;8731;50.364;8.958;2023-04-25T20:13:25;4.03;;;1.47;;
17228;SDS011;8731;50.364;8.958;2023-04-25T20:17:49;3.90;;;1.70;;
17228;SDS011;8731;50.364;8.958;2023-04-25T20:22:11;5.17;;;2.07;;
17228;SDS011;8731;50.364;8.958;2023-04-25T20:26:33;4.00;;;1.50;;
17228;SDS011;8731;50.364;8.958;2023-04-25T20:30:56;2.20;;;1.50;;
17228;SDS011;8731;50.364;8.958;2023-04-25T20:35:20;12.93;;;9.67;;
17228;SDS011;8731;50.364;8.958;2023-04-25T20:39:43;34.77;;;19.63;;
17228;SDS011;8731;50.364;8.958;2023-04-25T20:44:05;16.27;;;11.93;;
17228;SDS011;8731;50.364;8.958;2023-04-25T20:48:28;8.50;;;6.10;;
17228;SDS011;8731;50.364;8.958;2023-04-25T20:52:52;7.03;;;2.77;;
17228;SDS011;8731;50.364;8.958;2023-04-25T20:57:14;5.57;;;3.13;;
17228;SDS011;8731;50.364;8.958;2023-04-25T21:01:37;5.73;;;2.17;;
17228;SDS011;8731;50.364;8.958;2023-04-25T21:05:59;6.53;;;2.17;;
17228;SDS011;8731;50.364;8.958;2023-04-25T21:10:23;23.20;;;12.63;;
17228;SDS011;8731;50.364;8.958;2023-04-25T21:14:46;6.70;;;3.20;;
17228;SDS011;8731;50.364;8.958;2023-04-25T21:19:08;3.47;;;2.10;;
17228;SDS011;8731;50.364;8.958;2023-04-25T21:23:30;5.97;;;2.50;;
17228;SDS011;8731;50.364;8.958;2023-04-25T21:27:54;6.87;;;2.30;;
17228;SDS011;8731;50.364;8.958;2023-04-25T21:32:18;3.63;;;2.33;;
17228;SDS011;8731;50.364;8.958;2023-04-25T21:36:40;5.87;;;2.23;;
17228;SDS011;8731;50.364;8.958;2023-04-25T21:41:03;6.40;;;2.40;;
17228;SDS011;8731;50.364;8.958;2023-04-25T21:45:27;4.73;;;2.10;;
17228;SDS011;8731;50.364;8.958;2023-04-25T21:49:50;3.37;;;2.20;;
17228;SDS011;8731;50.364;8.958;2023-04-25T21:54:12;4.70;;;2.20;;
17228;SDS011;8731;50.364;8.958;2023-04-25T21:58:34;2.90;;;2.00;;
17228;SDS011;8731;50.364;8.958;2023-04-25T22:02:58;5.50;;;2.20;;
17228;SDS011;8731;50.364;8.958;2023-04-25T22:07:20;5.23;;;2.90;;
17228;SDS011;8731;50.364;8.958;2023-04-25T22:11:43;6.37;;;2.60;;
17228;SDS011;8731;50.364;8.958;2023-04-25T22:16:05;3.87;;;2.50;;
17228;SDS011;8731;50.364;8.958;2023-04-25T22:20:32;8.97;;;3.77;;
17228;SDS011;8731;50.364;8.958;2023-04-25T22:24:55;6.77;;;3.33;;
17228;SDS011;8731;50.364;8.958;2023-04-25T22:29:18;5.70;;;3.00;;
17228;SDS011;8731;50.364;8.958;2023-04-25T22:33:40;5.07;;;3.10;;
17228;SDS011;8731;50.364;8.958;2023-04-25T22:38:07;6.90;;;3.20;;
17228;SDS011;8731;50.364;8.958;2023-04-25T22:42:32;6.17;;;3.70;;
17228;SDS011;8731;50.364;8.958;2023-04-25T22:46:59;6.80;;;3.03;;
17228;SDS011;8731;50.364;8.958;2023-04-25T22:51:21;6.90;;;3.33;;
17228;SDS011;8731;50.364;8.958;2023-04-25T22:55:45;4.37;;;2.37;;
17228;SDS011;8731;50.364;8.958;2023-04-25T23:00:17;4.77;;;2.67;;
17228;SDS011;8731;50.364;8.958;2023-04-25T23:04:40;4.60;;;2.73;;
17228;SDS011;8731;50.364;8.958;2023-04-25T23:09:03;6.43;;;3.27;;
17228;SDS011;8731;50.364;8.958;2023-04-25T23:13:29;4.10;;;2.23;;
17228;SDS011;8731;50.364;8.958;2023-04-25T23:17:52;4.40;;;2.53;;
17228;SDS011;8731;50.364;8.958;2023-04-25T23:22:14;2.73;;;2.10;;
17228;SDS011;8731;50.364;8.958;2023-04-25T23:26:37;5.17;;;3.10;;
17228;SDS011;8731;50.364;8.958;2023-04-25T23:31:05;7.67;;;3.50;;
17228;SDS011;8731;50.364;8.958;2023-04-25T23:35:33;5.80;;;2.47;;
17228;SDS011;8731;50.364;8.958;2023-04-25T23:39:56;6.57;;;2.57;;
17228;SDS011;8731;50.364;8.958;2023-04-25T23:44:18;6.03;;;2.63;;
17228;SDS011;8731;50.364;8.958;2023-04-25T23:48:42;4.07;;;2.43;;
17228;SDS011;8731;50.364;8.958;2023-04-25T23:53:05;7.77;;;2.73;;
17228;SDS011;8731;50.364;8.958;2023-04-25T23:57:29;6.00;;;2.80;;
